createdAt,value
2023-05-09T00:08:11.838Z,17.04
2023-05-09T00:18:15.210Z,17.01
2023-05-09T00:28:20.022Z,17.14
2023-05-09T00:38:24.044Z,16.93
2023-05-09T00:48:28.012Z,16.99
2023-05-09T00:58:31.356Z,16.82
2023-05-09T01:08:45.738Z,16.60
2023-05-09T01:18:52.895Z,16.41
2023-05-09T01:29:24.856Z,16.11
2023-05-09T01:39:31.746Z,15.97
2023-05-09T01:49:37.108Z,15.93
2023-05-09T01:59:42.761Z,15.84
2023-05-09T02:09:47.244Z,15.90
2023-05-09T02:19:51.203Z,15.76
2023-05-09T02:29:58.326Z,15.61
2023-05-09T02:40:02.526Z,15.53
2023-05-09T02:50:06.116Z,15.36
2023-05-09T03:00:12.316Z,15.30
2023-05-09T03:10:14.989Z,15.40
2023-05-09T03:20:19.634Z,15.39
2023-05-09T03:30:22.365Z,15.40
2023-05-09T03:40:26.392Z,15.34
2023-05-09T03:50:30.061Z,15.31
2023-05-09T04:00:34.116Z,15.26
2023-05-09T04:10:37.067Z,15.25
2023-05-09T04:20:41.253Z,15.14
2023-05-09T04:30:44.210Z,15.33
2023-05-09T04:40:48.478Z,15.44
2023-05-09T04:50:51.140Z,15.62
2023-05-09T05:00:55.077Z,15.74
2023-05-09T05:10:58.104Z,15.88
2023-05-09T05:21:02.357Z,15.96
2023-05-09T05:31:06.240Z,15.95
2023-05-09T05:41:11.283Z,16.04
2023-05-09T05:51:13.957Z,16.14
2023-05-09T06:01:17.943Z,16.48
2023-05-09T06:11:21.081Z,16.74
2023-05-09T06:21:25.017Z,16.90
2023-05-09T06:31:27.798Z,17.07
2023-05-09T06:41:31.803Z,17.06
2023-05-09T06:51:34.466Z,17.58
2023-05-09T07:01:38.526Z,18.09
2023-05-09T07:11:41.293Z,18.58
2023-05-09T07:21:45.316Z,19.35
2023-05-09T07:31:47.987Z,19.60
2023-05-09T07:41:52.001Z,19.69
2023-05-09T07:51:54.643Z,19.57
2023-05-09T08:01:58.679Z,19.98
2023-05-09T08:12:01.681Z,20.54
2023-05-09T08:22:05.767Z,20.54
2023-05-09T08:32:08.673Z,20.43
2023-05-09T08:42:15.850Z,20.40
2023-05-09T08:52:19.012Z,20.32
2023-05-09T09:02:23.251Z,20.53
2023-05-09T09:12:26.352Z,20.99
2023-05-09T09:22:33.973Z,21.15
2023-05-09T09:32:37.504Z,20.88
2023-05-09T09:42:45.126Z,21.29
2023-05-09T09:52:52.535Z,20.90
2023-05-09T10:02:58.770Z,20.87
2023-05-09T10:13:03.755Z,20.74
2023-05-09T10:23:08.954Z,20.73
2023-05-09T10:33:16.587Z,20.91
2023-05-09T10:43:23.945Z,21.06
2023-05-09T10:53:42.220Z,20.98
2023-05-09T11:03:57.389Z,20.50
2023-05-09T11:14:00.313Z,20.07
2023-05-09T11:24:17.492Z,19.82
2023-05-09T11:34:21.444Z,20.74
2023-05-09T11:44:25.542Z,21.74
2023-05-09T11:54:28.143Z,21.50
2023-05-09T12:04:33.254Z,22.03
2023-05-09T12:14:36.430Z,22.90
2023-05-09T12:24:40.658Z,25.51
2023-05-09T12:34:44.686Z,26.18
2023-05-09T12:44:51.663Z,23.90
2023-05-09T12:54:54.674Z,23.52
2023-05-09T13:05:10.752Z,22.63
2023-05-09T13:15:13.794Z,22.77
2023-05-09T13:25:19.741Z,22.46
2023-05-09T13:35:22.549Z,21.81
2023-05-09T13:45:26.522Z,21.35
2023-05-09T13:55:30.692Z,21.13
2023-05-09T14:05:35.384Z,21.35
2023-05-09T14:15:38.052Z,21.33
2023-05-09T14:25:42.274Z,20.74
2023-05-09T14:35:44.890Z,18.68
2023-05-09T14:45:48.991Z,16.39
2023-05-09T14:55:51.873Z,16.39
2023-05-09T15:05:55.904Z,16.54
2023-05-09T15:15:58.985Z,16.06
2023-05-09T15:26:03.065Z,15.62
2023-05-09T15:36:06.786Z,15.60
2023-05-09T15:46:11.065Z,15.90
2023-05-09T15:56:13.800Z,16.14
2023-05-09T16:06:17.912Z,16.12
2023-05-09T16:16:20.597Z,16.13
2023-05-09T16:26:24.885Z,16.37
2023-05-09T16:36:27.607Z,16.42
2023-05-09T16:46:31.982Z,16.61
2023-05-09T16:56:34.676Z,16.74
2023-05-09T17:06:38.753Z,16.85
2023-05-09T17:16:41.419Z,16.77
2023-05-09T17:26:45.636Z,16.67
2023-05-09T17:36:48.334Z,16.27
2023-05-09T17:46:52.375Z,16.08
2023-05-09T17:56:59.753Z,16.14
2023-05-09T18:07:04.002Z,16.25
2023-05-09T18:17:06.811Z,16.33
2023-05-09T18:27:11.649Z,16.45
2023-05-09T18:37:14.404Z,16.51
2023-05-09T18:47:18.496Z,16.48
2023-05-09T18:57:21.720Z,16.44
2023-05-09T19:07:26.335Z,16.39
2023-05-09T19:17:29.151Z,16.41
2023-05-09T19:27:33.167Z,16.34
2023-05-09T19:37:36.346Z,16.39
2023-05-09T19:47:40.650Z,16.45
2023-05-09T19:57:43.345Z,16.39
2023-05-09T20:07:47.425Z,16.42
2023-05-09T20:17:50.848Z,16.43
2023-05-09T20:27:55.118Z,16.43
2023-05-09T20:37:57.970Z,16.36
2023-05-09T20:48:04.005Z,16.29
2023-05-09T20:58:06.943Z,16.32
2023-05-09T21:08:11.406Z,16.30
2023-05-09T21:18:14.252Z,16.22
2023-05-09T21:28:18.565Z,16.21
2023-05-09T21:38:21.197Z,16.15
2023-05-09T21:48:25.233Z,16.12
2023-05-09T21:58:27.940Z,16.04
2023-05-09T22:08:32.036Z,16.04
2023-05-09T22:18:34.690Z,16.01
2023-05-09T22:28:38.910Z,15.99
2023-05-09T22:38:41.628Z,15.96
2023-05-09T22:48:45.729Z,15.98
2023-05-09T22:58:48.413Z,15.98
2023-05-09T23:08:52.652Z,16.01
2023-05-09T23:18:55.290Z,15.95
2023-05-09T23:28:59.293Z,15.93
2023-05-09T23:39:02.009Z,15.93
2023-05-09T23:49:06.113Z,15.86
2023-05-09T23:59:08.750Z,15.82
